Weather reports worldwide

Advertisment
Valdepena, Spain (8351): temperature & dewpoint: 17.08.2019 13:00:00 - 23.08.2019 13:00:00 (CEST)Valdepena, Spain (8351): wind speed & gusts: 17.08.2019 13:00:00 - 23.08.2019 13:00:00 (CEST)Valdepena, Spain (8351): wind direction: 17.08.2019 13:00:00 - 23.08.2019 13:00:00 (CEST)Valdepena, Spain (8351): reduced air pressure: 17.08.2019 13:00:00 - 23.08.2019 13:00:00 (CEST)Valdepena, Spain (8351): sunshine duration: 17.08.2019 13:00:00 - 23.08.2019 13:00:00 (CEST)Valdepena, Spain (8351): precipitation: 17.08.2019 13:00:00 - 23.08.2019 13:00:00 (CEST)
Date & Time tt [°C] td [°C] ff [km/h] ff [kn] fx [km/h] fx [kn] dd ppp [hPa] sd [min] rr [mm]
23.08.2019 13:00:00 30,4 0,0 5 3 13 7 NE 1015,4 60 0,0
23.08.2019 12:00:00 28,8 2,1 5 3 16 8 NNE 1016,2 60 0,0
23.08.2019 11:00:00 26,1 4,5 4 2 11 6 NE 1017,1 60 0,0
23.08.2019 10:00:00 21,7 8,3 8 4 17 9 NNE 1018,0 14 0,0
23.08.2019 09:00:00 18,0 9,6 3 2 19 11 NE 1018,9 27 0,0
23.08.2019 08:00:00 16,4 9,8 9 5 20 11 NE 1018,9 0 -
23.08.2019 07:00:00 17,2 10,8 11 6 23 12 NE 1018,1 0 0,0
23.08.2019 06:00:00 18,0 11,6 10 5 21 11 NE 1017,9 0 0,0
23.08.2019 05:00:00 18,1 11,9 11 6 18 10 NNE 1017,9 0 0,0
23.08.2019 04:00:00 19,0 11,6 6 3 16 9 NNE 1017,7 0 0,0
23.08.2019 03:00:00 21,2 11,0 4 2 13 7 NNE 1017,0 0 0,0
23.08.2019 02:00:00 20,4 11,6 4 2 18 10 E 1017,3 0 -
23.08.2019 01:00:00 21,7 11,4 9 5 17 9 NNE 1016,8 0 0,0
23.08.2019 00:00:00 24,1 10,8 8 5 29 16 NE 1016,2 0 0,0
22.08.2019 23:00:00 25,1 9,8 6 4 19 10 NE 1015,6 0 0,0
22.08.2019 22:00:00 27,0 7,0 5 3 15 8 NE 1014,6 0 0,0
22.08.2019 21:00:00 29,3 3,9 7 4 18 10 NNE 1013,5 1 0,0
22.08.2019 20:00:00 31,1 3,2 5 3 19 11 N 1012,9 4 -
22.08.2019 19:00:00 31,4 2,5 8 5 20 11 NNE 1012,9 31 0,0
22.08.2019 18:00:00 31,7 2,9 9 5 26 14 N 1013,1 60 0,0
22.08.2019 17:00:00 32,2 4,1 9 5 24 13 N 1013,4 60 0,0
22.08.2019 16:00:00 31,8 3,8 9 5 24 13 N 1014,0 60 0,0
22.08.2019 15:00:00 31,5 4,3 9 5 23 12 NNE 1014,5 60 0,0
22.08.2019 14:00:00 30,5 7,0 7 4 22 12 N 1015,2 60 -
22.08.2019 13:00:00 28,8 9,0 9 5 24 13 NNE 1016,2 60 0,0
22.08.2019 12:00:00 27,1 12,0 8 5 22 12 NNE 1016,9 60 0,0
22.08.2019 11:00:00 24,6 13,8 5 3 12 6 N 1017,7 60 0,0
22.08.2019 10:00:00 21,4 14,5 4 2 13 7 NNE 1018,4 18 0,0
22.08.2019 09:00:00 17,8 14,3 6 3 18 10 NNE 1019,3 30 0,0
22.08.2019 08:00:00 16,4 13,7 6 4 14 8 NNE 1019,3 0 -
22.08.2019 07:00:00 17,0 14,0 1 1 13 7 NNE 1018,8 0 0,0
22.08.2019 06:00:00 17,2 14,3 6 4 15 8 NNE 1018,5 0 0,0
22.08.2019 05:00:00 17,8 14,7 6 3 13 7 NE 1018,3 0 0,0
22.08.2019 04:00:00 18,2 15,1 4 2 11 6 NNE 1018,1 0 0,0
22.08.2019 03:00:00 18,6 15,4 4 2 22 12 E 1017,8 0 0,0
22.08.2019 02:00:00 19,2 15,7 8 4 22 12 NE 1018,2 0 -
22.08.2019 01:00:00 19,7 15,8 9 5 22 12 NE 1018,3 0 0,0
22.08.2019 00:00:00 20,4 16,6 10 5 22 12 N 1018,2 0 0,0
21.08.2019 23:00:00 21,3 16,7 9 5 18 10 NE 1017,1 0 0,0
21.08.2019 22:00:00 22,3 16,3 6 3 16 8 NE 1016,1 0 0,0
21.08.2019 21:00:00 23,7 16,2 5 3 21 11 NE 1015,0 0 0,0
21.08.2019 20:00:00 24,8 15,7 11 6 24 13 NE 1014,4 3 -
21.08.2019 19:00:00 25,2 13,4 10 5 27 15 NE 1014,3 23 0,0
21.08.2019 18:00:00 24,0 15,5 10 6 29 15 NE 1014,3 38 0,0
21.08.2019 17:00:00 23,7 17,7 10 5 30 16 NE 1014,9 19 0,0
21.08.2019 16:00:00 24,5 17,0 9 5 16 9 E 1014,2 0 1,8
21.08.2019 15:00:00 29,2 12,2 4 2 15 8 WNW 1013,2 24 0,0
21.08.2019 14:00:00 28,6 13,3 4 2 14 8 WSW 1013,8 26 -
21.08.2019 13:00:00 28,9 13,6 3 2 11 6 NNW 1014,5 28 0,0
21.08.2019 12:00:00 26,8 13,2 3 1 13 7 SSW 1015,7 58 0,0
21.08.2019 11:00:00 25,6 14,4 5 3 16 9 E 1016,0 13 0,0
21.08.2019 10:00:00 24,2 14,9 7 4 16 9 E 1016,5 0 0,0
21.08.2019 09:00:00 22,5 14,9 6 3 15 8 ENE 1016,5 0 0,0
21.08.2019 08:00:00 21,0 14,9 7 4 16 9 ENE 1016,6 0 -
21.08.2019 07:00:00 21,3 15,2 6 4 15 8 ENE 1016,0 0 0,0
21.08.2019 06:00:00 21,7 15,1 6 3 18 10 ENE 1015,8 0 0,0
21.08.2019 05:00:00 21,9 15,3 7 4 18 10 E 1015,6 0 0,0
21.08.2019 04:00:00 22,2 15,3 8 5 16 9 ENE 1015,5 0 0,0
21.08.2019 03:00:00 22,7 15,3 8 5 23 12 ENE 1015,3 0 0,0
21.08.2019 02:00:00 23,2 15,3 9 5 28 15 ENE 1015,0 0 -
21.08.2019 01:00:00 23,8 15,3 16 8 31 17 ENE 1014,4 0 0,0
21.08.2019 00:00:00 24,7 14,5 13 7 26 14 ENE 1014,0 0 0,0
20.08.2019 23:00:00 25,6 15,0 9 5 28 15 NE 1013,5 0 0,0
20.08.2019 22:00:00 28,0 14,2 10 6 21 12 NNE 1012,2 0 0,0
20.08.2019 21:00:00 31,0 -0,7 9 5 19 11 NNW 1011,0 0 0,0
20.08.2019 20:00:00 32,5 -0,5 4 2 13 7 WNW 1010,4 4 -
20.08.2019 19:00:00 32,6 -0,5 4 2 19 10 N 1010,5 26 0,0
20.08.2019 18:00:00 33,2 0,0 6 3 16 9 SSE 1010,4 60 0,0
20.08.2019 17:00:00 33,9 -0,7 3 2 15 8 SSW 1010,5 60 0,0
20.08.2019 16:00:00 32,7 -1,7 5 3 16 9 S 1011,5 57 0,0
20.08.2019 15:00:00 32,4 -0,7 4 2 15 8 W 1011,9 60 0,0
20.08.2019 14:00:00 31,3 0,6 8 4 19 11 SSE 1012,6 60 -
20.08.2019 13:00:00 30,6 0,0 4 2 12 7 NNE 1013,0 60 0,0
20.08.2019 12:00:00 28,6 1,1 5 3 11 6 S 1013,6 60 0,0
20.08.2019 11:00:00 25,3 1,5 4 2 9 5 S 1014,2 32 0,0
20.08.2019 10:00:00 23,3 1,5 2 1 8 5 ESE 1014,2 7 0,0
20.08.2019 09:00:00 20,6 2,9 2 1 6 3 N 1014,3 19 0,0
20.08.2019 08:00:00 19,6 2,1 2 1 9 5 SSE 1014,1 0 -
20.08.2019 07:00:00 19,7 1,7 3 2 6 4 SE 1013,6 0 0,0
20.08.2019 06:00:00 19,9 2,7 4 2 8 4 SE 1013,6 0 0,0
20.08.2019 05:00:00 21,1 2,3 4 2 7 4 SE 1013,2 0 0,0
20.08.2019 04:00:00 21,8 3,9 4 2 7 4 SE 1013,1 0 0,0
20.08.2019 03:00:00 22,8 4,8 3 2 7 4 SE 1013,0 0 0,0
20.08.2019 02:00:00 23,8 5,6 4 2 6 4 S 1012,7 0 -
20.08.2019 01:00:00 25,5 5,6 3 2 12 7 SSW 1012,5 0 0,0
20.08.2019 00:00:00 26,2 3,9 3 2 6 3 SE 1012,0 0 0,0
19.08.2019 23:00:00 27,7 0,4 4 2 8 5 SSE 1011,4 0 0,0
19.08.2019 22:00:00 29,3 -2,0 6 3 16 9 SSE 1010,3 0 0,0
19.08.2019 21:00:00 31,9 0,0 8 4 18 10 S 1008,8 0 0,0
19.08.2019 20:00:00 34,0 -2,0 8 4 27 15 S 1008,0 8 -
19.08.2019 19:00:00 34,7 -1,4 12 7 26 14 S 1007,9 28 0,0
19.08.2019 18:00:00 34,9 0,0 8 4 28 15 S 1008,2 60 0,0
19.08.2019 17:00:00 35,5 1,7 5 3 26 14 S 1008,4 60 0,0
19.08.2019 16:00:00 34,9 1,3 10 5 28 15 S 1009,0 60 0,0
19.08.2019 15:00:00 34,3 3,9 7 4 26 14 S 1009,6 60 0,0
19.08.2019 14:00:00 33,3 5,0 7 4 21 12 SSE 1010,2 60 -
19.08.2019 13:00:00 31,7 6,7 8 4 22 12 S 1011,3 60 0,0
19.08.2019 12:00:00 29,6 7,4 5 3 15 8 S 1012,0 60 0,0
19.08.2019 11:00:00 27,8 8,7 4 2 13 7 S 1012,5 60 0,0
19.08.2019 10:00:00 25,0 11,2 4 2 8 5 S 1013,1 25 0,0
19.08.2019 09:00:00 21,0 5,0 3 2 6 4 N 1014,5 33 0,0
19.08.2019 08:00:00 19,3 3,8 3 1 7 4 N 1014,4 0 -
19.08.2019 07:00:00 19,9 3,6 4 2 8 4 SE 1013,8 0 0,0
19.08.2019 06:00:00 21,4 7,6 3 2 9 5 SSE 1013,1 0 0,0
19.08.2019 05:00:00 22,0 6,7 4 2 8 5 SSE 1013,3 0 0,0
19.08.2019 04:00:00 22,7 2,3 6 3 9 5 SE 1013,3 0 0,0
19.08.2019 03:00:00 23,3 0,4 3 2 7 4 SSE 1013,5 0 0,0
19.08.2019 02:00:00 24,1 -1,7 3 2 6 3 SE 1013,4 0 -
19.08.2019 01:00:00 25,0 -1,0 1 1 5 3 S 1013,0 0 0,0
19.08.2019 00:00:00 26,2 -0,7 3 2 16 8 S 1012,5 0 0,0
18.08.2019 23:00:00 28,0 -1,0 4 2 9 5 S 1011,7 0 0,0
18.08.2019 22:00:00 29,8 -0,5 3 2 20 11 SSW 1010,0 0 0,0
18.08.2019 21:00:00 31,6 0,9 9 5 28 15 W 1008,8 0 0,0
18.08.2019 20:00:00 34,4 2,1 7 4 21 12 W 1007,4 5 -
18.08.2019 19:00:00 35,7 3,0 6 3 24 13 W 1006,7 25 0,0
18.08.2019 18:00:00 36,9 0,2 5 3 23 12 SSW 1006,6 60 0,0
18.08.2019 17:00:00 36,4 0,0 7 4 24 13 WSW 1007,2 60 0,0
18.08.2019 16:00:00 36,9 0,2 7 4 28 15 S 1007,6 60 0,0
18.08.2019 15:00:00 35,9 0,9 7 4 28 15 S 1008,4 60 0,0
18.08.2019 14:00:00 35,2 1,5 6 3 19 10 S 1009,1 60 -
18.08.2019 13:00:00 34,2 1,9 8 4 19 10 SSW 1009,9 60 0,0
18.08.2019 12:00:00 31,9 2,9 4 2 12 7 WSW 1010,9 60 0,0
18.08.2019 11:00:00 30,3 3,4 3 2 8 4 SE 1011,2 60 0,0
18.08.2019 10:00:00 27,1 5,3 3 2 9 5 ENE 1011,5 30 0,0
18.08.2019 09:00:00 21,8 4,8 2 1 9 5 N 1012,8 26 0,0
18.08.2019 08:00:00 19,9 3,6 3 2 12 6 ESE 1013,1 0 -
18.08.2019 07:00:00 20,4 2,7 5 3 9 5 NNE 1012,4 0 0,0
18.08.2019 06:00:00 21,8 2,5 2 1 7 4 N 1011,8 0 0,0
18.08.2019 05:00:00 23,4 2,3 2 1 8 5 E 1011,5 0 0,0
18.08.2019 04:00:00 24,4 2,5 3 1 10 6 SE 1011,6 0 0,0
18.08.2019 03:00:00 25,7 1,7 6 3 16 9 SE 1011,5 0 0,0
18.08.2019 02:00:00 26,4 1,7 3 1 7 4 SE 1011,4 0 -
18.08.2019 01:00:00 26,9 1,3 4 2 7 4 SE 1011,1 0 0,0
18.08.2019 00:00:00 28,2 0,9 4 2 9 5 SE 1010,5 0 0,0
17.08.2019 23:00:00 29,6 1,1 5 3 10 5 SSE 1010,0 0 0,0
17.08.2019 22:00:00 31,3 0,6 4 2 14 7 S 1009,1 0 0,0
17.08.2019 21:00:00 34,4 0,9 6 3 16 9 SSW 1008,0 0 0,0
17.08.2019 20:00:00 36,1 1,1 8 5 20 11 S 1007,5 6 -
17.08.2019 19:00:00 36,6 1,3 5 3 23 13 WSW 1007,7 24 0,0
17.08.2019 18:00:00 37,2 1,9 5 3 32 17 SE 1008,1 60 0,0
17.08.2019 17:00:00 37,5 2,1 11 6 24 13 S 1008,4 60 0,0
17.08.2019 16:00:00 37,5 2,1 11 6 31 17 SSE 1009,0 60 0,0
17.08.2019 15:00:00 36,9 3,9 6 3 27 14 SE 1009,7 60 0,0
17.08.2019 14:00:00 36,0 4,3 7 4 26 14 SSW 1010,6 60 -
17.08.2019 13:00:00 34,9 3,4 7 4 18 10 S 1011,5 60 0,0

tt = temperature
td = dewpoint
ff = wind speed
fx = gusts
dd = wind direction
ppp = reduced air pressure
sd = sunshine duration
rr = precipitation

Next stations